Startpagina
METAR-TAF:

METAR-TAF

Vliegvelden :

Flughafen Weeze

Weeze, Duitsland

breedte: 51-36-09N, lengte: 006-08-32E, hoogte: 32 m

Actueel weer

Dit bericht is 36 minuten geleden gemaakt, om 14:50 UTC
Wind 3 kt uit variabele richting
Temperatuur 1°C
Vochtigheid 69%
Druk 1018 hPa
Zicht 10 km of meer
geen wolken onder 1500 m en geen cumulonimbus

METAR: EDLV 201450Z VRB03KT CAVOK 01/M04 Q1018

Tijdstip: 16:26 (15:26 UTC)

Verwachting

Dit bericht is 4 uur en het 26 minuten geleden gemaakt, om 11:00 UTC
Verwachting geldig van 20 om 12 UTC tot 21 om 12 UTC
Wind 5 kt uit het oosten
Zicht 10 km of meer
geen wolken onder 1500 m en geen cumulonimbus
Wijzigt naar
van 20 om 13 UTC tot 20 om 16 UTC
Wind 3 kt uit variabele richting
Wijzigt naar
van 21 om 10 UTC tot 21 om 12 UTC
Wind 5 kt uit het zuidzuidwesten

TAF: EDLV 201100Z 2012/2112 09005KT CAVOK BECMG 2013/2016 VRB03KT BECMG 2110/2112 21005KT

Waarnemingen en weersverwachtingen van meer dan 4000 vliegvelden (METAR en TAF).

De beschikbare stations zijn de gele en rode punten op de kaart.

Ga met uw muis naar het station om de naam te zien.

Klik dan om waarnemingen en weersverwachtingen te zien.

kaart wijzigen: klik op de groene knoppen met een zwart kruis om in te zoomen, op de groene knop met een streepje om uit te zoomen of op de groene pijlen voor aangrenzende kaarten.


METAR-TAF: